sensor_id;sensor_type;location;lat;lon;timestamp;P1;durP1;ratioP1;P2;durP2;ratioP2
39524;SDS011;25203;50.754;6.978;2023-06-14T00:01:45;8.52;;;6.07;;
39524;SDS011;25203;50.754;6.978;2023-06-14T00:03:47;6.72;;;5.53;;
39524;SDS011;25203;50.754;6.978;2023-06-14T00:05:48;6.53;;;5.32;;
39524;SDS011;25203;50.754;6.978;2023-06-14T00:07:48;7.03;;;5.95;;
39524;SDS011;25203;50.754;6.978;2023-06-14T00:09:53;6.20;;;5.50;;
39524;SDS011;25203;50.754;6.978;2023-06-14T00:11:53;6.97;;;6.18;;
39524;SDS011;25203;50.754;6.978;2023-06-14T00:13:54;8.63;;;6.20;;
39524;SDS011;25203;50.754;6.978;2023-06-14T00:15:55;16.50;;;6.38;;
39524;SDS011;25203;50.754;6.978;2023-06-14T00:17:55;6.72;;;6.00;;
39524;SDS011;25203;50.754;6.978;2023-06-14T00:19:57;7.00;;;5.47;;
39524;SDS011;25203;50.754;6.978;2023-06-14T00:21:58;7.30;;;5.78;;
39524;SDS011;25203;50.754;6.978;2023-06-14T00:23:58;6.60;;;5.82;;
39524;SDS011;25203;50.754;6.978;2023-06-14T00:25:59;6.03;;;5.43;;
39524;SDS011;25203;50.754;6.978;2023-06-14T00:28:00;6.93;;;6.22;;
39524;SDS011;25203;50.754;6.978;2023-06-14T00:30:01;7.50;;;5.88;;
39524;SDS011;25203;50.754;6.978;2023-06-14T00:32:01;8.00;;;6.28;;
39524;SDS011;25203;50.754;6.978;2023-06-14T00:34:02;6.53;;;5.93;;
39524;SDS011;25203;50.754;6.978;2023-06-14T00:36:03;8.15;;;6.63;;
39524;SDS011;25203;50.754;6.978;2023-06-14T00:38:04;7.15;;;6.45;;
39524;SDS011;25203;50.754;6.978;2023-06-14T00:40:04;7.40;;;6.68;;
39524;SDS011;25203;50.754;6.978;2023-06-14T00:42:06;7.60;;;6.45;;
39524;SDS011;25203;50.754;6.978;2023-06-14T00:44:07;7.90;;;6.78;;
39524;SDS011;25203;50.754;6.978;2023-06-14T00:46:07;9.45;;;6.45;;
39524;SDS011;25203;50.754;6.978;2023-06-14T00:48:08;9.43;;;6.75;;
39524;SDS011;25203;50.754;6.978;2023-06-14T00:50:10;11.60;;;7.03;;
39524;SDS011;25203;50.754;6.978;2023-06-14T00:52:11;7.47;;;6.78;;
39524;SDS011;25203;50.754;6.978;2023-06-14T00:54:14;7.40;;;6.18;;
39524;SDS011;25203;50.754;6.978;2023-06-14T00:56:15;8.90;;;6.80;;
39524;SDS011;25203;50.754;6.978;2023-06-14T00:58:16;9.40;;;6.97;;
39524;SDS011;25203;50.754;6.978;2023-06-14T01:00:17;7.93;;;7.10;;
39524;SDS011;25203;50.754;6.978;2023-06-14T01:02:18;7.97;;;6.93;;
39524;SDS011;25203;50.754;6.978;2023-06-14T01:04:18;7.53;;;6.80;;
39524;SDS011;25203;50.754;6.978;2023-06-14T01:08:51;12.82;;;7.25;;
39524;SDS011;25203;50.754;6.978;2023-06-14T01:11:16;7.90;;;7.18;;
39524;SDS011;25203;50.754;6.978;2023-06-14T01:13:32;11.85;;;7.47;;
39524;SDS011;25203;50.754;6.978;2023-06-14T01:15:35;8.30;;;7.50;;
39524;SDS011;25203;50.754;6.978;2023-06-14T01:17:37;11.38;;;7.05;;
39524;SDS011;25203;50.754;6.978;2023-06-14T01:19:42;8.07;;;7.28;;
39524;SDS011;25203;50.754;6.978;2023-06-14T01:21:44;10.40;;;7.40;;
39524;SDS011;25203;50.754;6.978;2023-06-14T01:23:45;11.00;;;7.10;;
39524;SDS011;25203;50.754;6.978;2023-06-14T01:25:46;9.30;;;7.50;;
39524;SDS011;25203;50.754;6.978;2023-06-14T01:27:51;8.07;;;7.28;;
39524;SDS011;25203;50.754;6.978;2023-06-14T01:30:11;8.88;;;7.28;;
39524;SDS011;25203;50.754;6.978;2023-06-14T01:32:12;7.93;;;7.00;;
39524;SDS011;25203;50.754;6.978;2023-06-14T01:34:13;8.00;;;7.20;;
39524;SDS011;25203;50.754;6.978;2023-06-14T01:36:14;8.18;;;7.35;;
39524;SDS011;25203;50.754;6.978;2023-06-14T01:38:19;8.55;;;7.40;;
39524;SDS011;25203;50.754;6.978;2023-06-14T01:40:23;7.38;;;6.65;;
39524;SDS011;25203;50.754;6.978;2023-06-14T01:42:25;10.57;;;7.95;;
39524;SDS011;25203;50.754;6.978;2023-06-14T01:44:27;9.05;;;7.45;;
39524;SDS011;25203;50.754;6.978;2023-06-14T01:46:28;8.77;;;7.88;;
39524;SDS011;25203;50.754;6.978;2023-06-14T01:48:28;9.50;;;7.68;;
39524;SDS011;25203;50.754;6.978;2023-06-14T01:50:29;10.00;;;7.90;;
39524;SDS011;25203;50.754;6.978;2023-06-14T01:52:31;7.90;;;7.10;;
39524;SDS011;25203;50.754;6.978;2023-06-14T01:54:31;9.77;;;7.85;;
39524;SDS011;25203;50.754;6.978;2023-06-14T01:56:32;10.10;;;8.15;;
39524;SDS011;25203;50.754;6.978;2023-06-14T01:58:32;9.18;;;8.07;;
39524;SDS011;25203;50.754;6.978;2023-06-14T02:00:33;10.07;;;7.55;;
39524;SDS011;25203;50.754;6.978;2023-06-14T02:02:33;10.32;;;7.97;;
39524;SDS011;25203;50.754;6.978;2023-06-14T02:04:34;9.65;;;7.95;;
39524;SDS011;25203;50.754;6.978;2023-06-14T02:06:35;8.98;;;8.07;;
39524;SDS011;25203;50.754;6.978;2023-06-14T02:08:35;13.00;;;7.80;;
39524;SDS011;25203;50.754;6.978;2023-06-14T02:10:36;8.60;;;7.50;;
39524;SDS011;25203;50.754;6.978;2023-06-14T02:12:37;8.55;;;7.75;;
39524;SDS011;25203;50.754;6.978;2023-06-14T02:14:37;9.60;;;7.97;;
39524;SDS011;25203;50.754;6.978;2023-06-14T02:16:38;8.95;;;7.97;;
39524;SDS011;25203;50.754;6.978;2023-06-14T02:18:39;9.35;;;8.38;;
39524;SDS011;25203;50.754;6.978;2023-06-14T02:20:39;10.13;;;7.97;;
39524;SDS011;25203;50.754;6.978;2023-06-14T02:22:40;7.68;;;6.97;;
39524;SDS011;25203;50.754;6.978;2023-06-14T02:24:41;8.95;;;7.82;;
39524;SDS011;25203;50.754;6.978;2023-06-14T02:26:42;13.93;;;8.00;;
39524;SDS011;25203;50.754;6.978;2023-06-14T02:28:43;8.55;;;7.65;;
39524;SDS011;25203;50.754;6.978;2023-06-14T02:30:43;9.20;;;7.72;;
39524;SDS011;25203;50.754;6.978;2023-06-14T02:32:44;8.98;;;8.07;;
39524;SDS011;25203;50.754;6.978;2023-06-14T02:34:45;10.73;;;8.18;;
39524;SDS011;25203;50.754;6.978;2023-06-14T02:36:49;8.82;;;7.65;;
39524;SDS011;25203;50.754;6.978;2023-06-14T02:38:50;14.75;;;7.93;;
39524;SDS011;25203;50.754;6.978;2023-06-14T02:40:50;9.45;;;8.55;;
39524;SDS011;25203;50.754;6.978;2023-06-14T02:42:51;8.57;;;7.75;;
39524;SDS011;25203;50.754;6.978;2023-06-14T02:44:52;10.35;;;8.93;;
39524;SDS011;25203;50.754;6.978;2023-06-14T02:46:55;9.05;;;8.15;;
39524;SDS011;25203;50.754;6.978;2023-06-14T02:49:04;8.68;;;7.78;;
39524;SDS011;25203;50.754;6.978;2023-06-14T02:51:05;10.48;;;8.35;;
39524;SDS011;25203;50.754;6.978;2023-06-14T02:53:05;9.48;;;8.13;;
39524;SDS011;25203;50.754;6.978;2023-06-14T02:55:07;9.75;;;8.55;;
39524;SDS011;25203;50.754;6.978;2023-06-14T02:57:09;10.48;;;8.13;;
39524;SDS011;25203;50.754;6.978;2023-06-14T02:59:10;8.80;;;7.47;;
39524;SDS011;25203;50.754;6.978;2023-06-14T03:01:11;9.93;;;8.48;;
39524;SDS011;25203;50.754;6.978;2023-06-14T03:03:12;9.07;;;8.20;;
39524;SDS011;25203;50.754;6.978;2023-06-14T03:05:16;9.25;;;7.80;;
39524;SDS011;25203;50.754;6.978;2023-06-14T03:07:20;9.48;;;8.13;;
39524;SDS011;25203;50.754;6.978;2023-06-14T03:09:23;10.45;;;8.07;;
39524;SDS011;25203;50.754;6.978;2023-06-14T03:11:23;9.05;;;8.07;;
39524;SDS011;25203;50.754;6.978;2023-06-14T03:13:24;9.70;;;8.55;;
39524;SDS011;25203;50.754;6.978;2023-06-14T03:15:24;14.77;;;7.90;;
39524;SDS011;25203;50.754;6.978;2023-06-14T03:17:25;9.45;;;8.55;;
39524;SDS011;25203;50.754;6.978;2023-06-14T03:19:29;9.07;;;7.95;;
39524;SDS011;25203;50.754;6.978;2023-06-14T03:21:30;11.25;;;8.10;;
39524;SDS011;25203;50.754;6.978;2023-06-14T03:23:32;8.88;;;7.97;;
39524;SDS011;25203;50.754;6.978;2023-06-14T03:25:33;12.82;;;8.45;;
39524;SDS011;25203;50.754;6.978;2023-06-14T03:27:35;14.65;;;9.05;;
39524;SDS011;25203;50.754;6.978;2023-06-14T03:29:36;13.77;;;8.73;;
39524;SDS011;25203;50.754;6.978;2023-06-14T03:31:41;11.65;;;8.98;;
39524;SDS011;25203;50.754;6.978;2023-06-14T03:34:00;11.90;;;8.95;;
39524;SDS011;25203;50.754;6.978;2023-06-14T03:36:01;15.05;;;8.20;;
39524;SDS011;25203;50.754;6.978;2023-06-14T03:38:03;12.88;;;8.27;;
39524;SDS011;25203;50.754;6.978;2023-06-14T03:40:04;12.15;;;8.90;;
39524;SDS011;25203;50.754;6.978;2023-06-14T03:42:06;11.52;;;9.30;;
39524;SDS011;25203;50.754;6.978;2023-06-14T03:44:07;12.25;;;8.35;;
39524;SDS011;25203;50.754;6.978;2023-06-14T03:46:08;13.65;;;9.68;;
39524;SDS011;25203;50.754;6.978;2023-06-14T03:48:09;12.80;;;9.68;;
39524;SDS011;25203;50.754;6.978;2023-06-14T03:50:10;11.70;;;8.93;;
39524;SDS011;25203;50.754;6.978;2023-06-14T03:52:11;13.27;;;9.38;;
39524;SDS011;25203;50.754;6.978;2023-06-14T03:54:11;11.95;;;9.63;;
39524;SDS011;25203;50.754;6.978;2023-06-14T03:56:12;14.82;;;9.38;;
39524;SDS011;25203;50.754;6.978;2023-06-14T03:58:12;9.82;;;8.73;;
39524;SDS011;25203;50.754;6.978;2023-06-14T04:00:13;12.27;;;9.05;;
39524;SDS011;25203;50.754;6.978;2023-06-14T04:02:15;10.13;;;8.98;;
39524;SDS011;25203;50.754;6.978;2023-06-14T04:04:16;11.40;;;8.45;;
39524;SDS011;25203;50.754;6.978;2023-06-14T04:06:17;11.43;;;9.32;;
39524;SDS011;25203;50.754;6.978;2023-06-14T04:08:19;10.43;;;8.50;;
39524;SDS011;25203;50.754;6.978;2023-06-14T04:10:20;10.30;;;8.70;;
39524;SDS011;25203;50.754;6.978;2023-06-14T04:12:21;10.80;;;8.68;;
39524;SDS011;25203;50.754;6.978;2023-06-14T04:14:22;10.88;;;8.95;;
39524;SDS011;25203;50.754;6.978;2023-06-14T04:16:22;10.15;;;8.98;;
39524;SDS011;25203;50.754;6.978;2023-06-14T04:18:23;9.23;;;8.32;;
39524;SDS011;25203;50.754;6.978;2023-06-14T04:20:24;10.23;;;8.55;;
39524;SDS011;25203;50.754;6.978;2023-06-14T04:22:25;12.85;;;8.35;;
39524;SDS011;25203;50.754;6.978;2023-06-14T04:24:28;12.20;;;8.52;;
39524;SDS011;25203;50.754;6.978;2023-06-14T04:26:32;11.57;;;8.38;;
39524;SDS011;25203;50.754;6.978;2023-06-14T04:28:33;9.13;;;8.18;;
39524;SDS011;25203;50.754;6.978;2023-06-14T04:30:40;10.38;;;8.85;;
39524;SDS011;25203;50.754;6.978;2023-06-14T04:32:41;9.93;;;8.93;;
39524;SDS011;25203;50.754;6.978;2023-06-14T04:34:42;10.07;;;8.10;;
39524;SDS011;25203;50.754;6.978;2023-06-14T04:36:43;14.55;;;9.13;;
39524;SDS011;25203;50.754;6.978;2023-06-14T04:38:49;8.27;;;7.47;;
39524;SDS011;25203;50.754;6.978;2023-06-14T04:40:49;14.00;;;8.57;;
39524;SDS011;25203;50.754;6.978;2023-06-14T04:42:52;11.35;;;8.45;;
39524;SDS011;25203;50.754;6.978;2023-06-14T04:44:54;13.10;;;8.70;;
39524;SDS011;25203;50.754;6.978;2023-06-14T04:46:56;10.68;;;7.63;;
39524;SDS011;25203;50.754;6.978;2023-06-14T04:48:58;9.82;;;8.10;;
39524;SDS011;25203;50.754;6.978;2023-06-14T04:51:02;9.57;;;7.13;;
39524;SDS011;25203;50.754;6.978;2023-06-14T04:53:03;9.77;;;7.57;;
39524;SDS011;25203;50.754;6.978;2023-06-14T04:55:05;9.80;;;7.10;;
39524;SDS011;25203;50.754;6.978;2023-06-14T04:57:06;7.72;;;6.90;;
39524;SDS011;25203;50.754;6.978;2023-06-14T04:59:10;10.57;;;7.20;;
39524;SDS011;25203;50.754;6.978;2023-06-14T05:01:11;9.45;;;6.07;;
39524;SDS011;25203;50.754;6.978;2023-06-14T05:03:12;14.40;;;6.78;;
39524;SDS011;25203;50.754;6.978;2023-06-14T05:05:15;6.80;;;5.53;;
39524;SDS011;25203;50.754;6.978;2023-06-14T05:07:15;7.15;;;5.75;;
39524;SDS011;25203;50.754;6.978;2023-06-14T05:09:16;9.00;;;5.35;;
39524;SDS011;25203;50.754;6.978;2023-06-14T05:11:17;8.57;;;6.00;;
39524;SDS011;25203;50.754;6.978;2023-06-14T05:13:18;9.25;;;4.80;;
39524;SDS011;25203;50.754;6.978;2023-06-14T05:15:19;8.30;;;5.32;;
39524;SDS011;25203;50.754;6.978;2023-06-14T05:17:19;12.75;;;5.30;;
39524;SDS011;25203;50.754;6.978;2023-06-14T05:19:20;7.10;;;5.05;;
39524;SDS011;25203;50.754;6.978;2023-06-14T05:21:21;9.50;;;5.32;;
39524;SDS011;25203;50.754;6.978;2023-06-14T05:23:21;6.40;;;5.03;;
39524;SDS011;25203;50.754;6.978;2023-06-14T05:25:22;7.65;;;4.75;;
39524;SDS011;25203;50.754;6.978;2023-06-14T05:27:23;9.77;;;5.50;;
39524;SDS011;25203;50.754;6.978;2023-06-14T05:29:24;9.40;;;5.03;;
39524;SDS011;25203;50.754;6.978;2023-06-14T05:31:26;9.40;;;4.40;;
39524;SDS011;25203;50.754;6.978;2023-06-14T05:33:27;6.55;;;4.60;;
39524;SDS011;25203;50.754;6.978;2023-06-14T05:35:27;8.60;;;5.45;;
39524;SDS011;25203;50.754;6.978;2023-06-14T05:37:28;8.27;;;4.50;;
39524;SDS011;25203;50.754;6.978;2023-06-14T05:39:28;8.02;;;4.65;;
39524;SDS011;25203;50.754;6.978;2023-06-14T05:41:29;6.57;;;4.40;;
39524;SDS011;25203;50.754;6.978;2023-06-14T05:43:30;7.53;;;4.22;;
39524;SDS011;25203;50.754;6.978;2023-06-14T05:45:31;8.52;;;4.03;;
39524;SDS011;25203;50.754;6.978;2023-06-14T05:47:32;9.85;;;4.95;;
39524;SDS011;25203;50.754;6.978;2023-06-14T05:49:32;5.80;;;4.05;;
39524;SDS011;25203;50.754;6.978;2023-06-14T05:51:33;7.75;;;4.32;;
39524;SDS011;25203;50.754;6.978;2023-06-14T05:53:34;7.43;;;4.20;;
39524;SDS011;25203;50.754;6.978;2023-06-14T05:55:35;7.35;;;4.40;;
39524;SDS011;25203;50.754;6.978;2023-06-14T05:57:36;10.63;;;4.38;;
39524;SDS011;25203;50.754;6.978;2023-06-14T05:59:37;5.53;;;3.90;;
39524;SDS011;25203;50.754;6.978;2023-06-14T06:01:37;7.55;;;3.90;;
39524;SDS011;25203;50.754;6.978;2023-06-14T06:03:41;11.10;;;4.18;;
39524;SDS011;25203;50.754;6.978;2023-06-14T06:05:45;13.30;;;4.82;;
39524;SDS011;25203;50.754;6.978;2023-06-14T06:07:46;8.75;;;4.40;;
39524;SDS011;25203;50.754;6.978;2023-06-14T06:09:47;11.88;;;4.57;;
39524;SDS011;25203;50.754;6.978;2023-06-14T06:11:47;6.38;;;4.53;;
39524;SDS011;25203;50.754;6.978;2023-06-14T06:13:48;7.63;;;3.80;;
39524;SDS011;25203;50.754;6.978;2023-06-14T06:15:49;8.02;;;4.25;;
39524;SDS011;25203;50.754;6.978;2023-06-14T06:17:49;8.35;;;4.18;;
39524;SDS011;25203;50.754;6.978;2023-06-14T06:19:51;8.35;;;4.63;;
39524;SDS011;25203;50.754;6.978;2023-06-14T06:21:51;6.93;;;4.57;;
39524;SDS011;25203;50.754;6.978;2023-06-14T06:23:52;5.55;;;4.20;;
39524;SDS011;25203;50.754;6.978;2023-06-14T06:25:54;7.70;;;4.25;;
39524;SDS011;25203;50.754;6.978;2023-06-14T06:27:55;8.98;;;3.90;;
39524;SDS011;25203;50.754;6.978;2023-06-14T06:29:58;5.60;;;3.97;;
39524;SDS011;25203;50.754;6.978;2023-06-14T06:31:59;9.70;;;4.35;;
39524;SDS011;25203;50.754;6.978;2023-06-14T06:33:59;6.60;;;4.38;;
39524;SDS011;25203;50.754;6.978;2023-06-14T06:36:00;10.35;;;3.90;;
39524;SDS011;25203;50.754;6.978;2023-06-14T06:38:01;5.32;;;3.53;;
39524;SDS011;25203;50.754;6.978;2023-06-14T06:40:01;10.50;;;4.32;;
39524;SDS011;25203;50.754;6.978;2023-06-14T06:42:03;6.05;;;3.95;;
39524;SDS011;25203;50.754;6.978;2023-06-14T06:44:05;5.18;;;3.75;;
39524;SDS011;25203;50.754;6.978;2023-06-14T06:46:06;9.25;;;4.18;;
39524;SDS011;25203;50.754;6.978;2023-06-14T06:48:07;8.63;;;4.30;;
39524;SDS011;25203;50.754;6.978;2023-06-14T06:50:10;10.15;;;4.32;;
39524;SDS011;25203;50.754;6.978;2023-06-14T06:52:10;9.95;;;4.18;;
39524;SDS011;25203;50.754;6.978;2023-06-14T06:54:11;11.57;;;3.75;;
39524;SDS011;25203;50.754;6.978;2023-06-14T06:56:11;7.53;;;3.72;;
39524;SDS011;25203;50.754;6.978;2023-06-14T06:58:13;4.95;;;3.65;;
39524;SDS011;25203;50.754;6.978;2023-06-14T07:00:14;6.60;;;3.60;;
39524;SDS011;25203;50.754;6.978;2023-06-14T07:02:15;11.10;;;3.55;;
39524;SDS011;25203;50.754;6.978;2023-06-14T07:04:16;8.13;;;3.80;;
39524;SDS011;25203;50.754;6.978;2023-06-14T07:06:17;7.18;;;3.83;;
39524;SDS011;25203;50.754;6.978;2023-06-14T07:08:18;8.25;;;3.50;;
39524;SDS011;25203;50.754;6.978;2023-06-14T07:10:19;8.00;;;3.72;;
39524;SDS011;25203;50.754;6.978;2023-06-14T07:12:20;4.75;;;3.10;;
39524;SDS011;25203;50.754;6.978;2023-06-14T07:14:20;12.05;;;3.65;;
39524;SDS011;25203;50.754;6.978;2023-06-14T07:16:23;7.63;;;3.10;;
39524;SDS011;25203;50.754;6.978;2023-06-14T07:18:23;6.53;;;3.30;;
39524;SDS011;25203;50.754;6.978;2023-06-14T07:20:24;4.50;;;3.10;;
39524;SDS011;25203;50.754;6.978;2023-06-14T07:22:25;8.00;;;3.15;;
39524;SDS011;25203;50.754;6.978;2023-06-14T07:24:26;6.43;;;2.92;;
39524;SDS011;25203;50.754;6.978;2023-06-14T07:26:28;3.92;;;3.03;;
39524;SDS011;25203;50.754;6.978;2023-06-14T07:28:28;5.55;;;3.35;;
39524;SDS011;25203;50.754;6.978;2023-06-14T07:30:29;8.70;;;3.38;;
39524;SDS011;25203;50.754;6.978;2023-06-14T07:32:30;4.28;;;3.13;;
39524;SDS011;25203;50.754;6.978;2023-06-14T07:34:30;7.03;;;2.97;;
39524;SDS011;25203;50.754;6.978;2023-06-14T07:36:31;5.25;;;2.78;;
39524;SDS011;25203;50.754;6.978;2023-06-14T07:38:32;6.03;;;3.42;;
39524;SDS011;25203;50.754;6.978;2023-06-14T07:40:32;5.10;;;3.08;;
39524;SDS011;25203;50.754;6.978;2023-06-14T07:42:33;4.88;;;2.92;;
39524;SDS011;25203;50.754;6.978;2023-06-14T07:44:35;8.52;;;3.30;;
39524;SDS011;25203;50.754;6.978;2023-06-14T07:46:36;8.68;;;2.78;;
39524;SDS011;25203;50.754;6.978;2023-06-14T07:48:37;6.85;;;2.80;;
39524;SDS011;25203;50.754;6.978;2023-06-14T07:50:37;3.83;;;2.63;;
39524;SDS011;25203;50.754;6.978;2023-06-14T07:52:38;8.52;;;2.63;;
39524;SDS011;25203;50.754;6.978;2023-06-14T07:54:39;5.65;;;2.47;;
39524;SDS011;25203;50.754;6.978;2023-06-14T07:56:41;8.10;;;2.40;;
39524;SDS011;25203;50.754;6.978;2023-06-14T07:58:41;5.43;;;2.50;;
39524;SDS011;25203;50.754;6.978;2023-06-14T08:00:42;5.05;;;2.47;;
39524;SDS011;25203;50.754;6.978;2023-06-14T08:02:43;7.72;;;2.60;;
39524;SDS011;25203;50.754;6.978;2023-06-14T08:04:44;4.68;;;2.78;;
39524;SDS011;25203;50.754;6.978;2023-06-14T08:06:45;6.40;;;2.38;;
39524;SDS011;25203;50.754;6.978;2023-06-14T08:08:47;7.05;;;2.60;;
39524;SDS011;25203;50.754;6.978;2023-06-14T08:10:48;3.08;;;2.28;;
39524;SDS011;25203;50.754;6.978;2023-06-14T08:12:49;3.70;;;2.17;;
39524;SDS011;25203;50.754;6.978;2023-06-14T08:14:52;5.97;;;2.88;;
39524;SDS011;25203;50.754;6.978;2023-06-14T08:16:53;6.68;;;2.00;;
39524;SDS011;25203;50.754;6.978;2023-06-14T08:18:54;3.90;;;2.15;;
39524;SDS011;25203;50.754;6.978;2023-06-14T08:20:55;3.03;;;2.33;;
39524;SDS011;25203;50.754;6.978;2023-06-14T08:22:57;4.47;;;2.10;;
39524;SDS011;25203;50.754;6.978;2023-06-14T08:24:58;5.10;;;2.45;;
39524;SDS011;25203;50.754;6.978;2023-06-14T08:26:59;4.03;;;2.33;;
39524;SDS011;25203;50.754;6.978;2023-06-14T08:29:01;4.38;;;1.95;;
39524;SDS011;25203;50.754;6.978;2023-06-14T08:31:01;2.10;;;1.75;;
39524;SDS011;25203;50.754;6.978;2023-06-14T08:33:02;1.90;;;1.80;;
39524;SDS011;25203;50.754;6.978;2023-06-14T08:35:03;2.40;;;1.50;;
39524;SDS011;25203;50.754;6.978;2023-06-14T08:37:05;4.50;;;1.70;;
39524;SDS011;25203;50.754;6.978;2023-06-14T08:39:06;7.32;;;2.05;;
39524;SDS011;25203;50.754;6.978;2023-06-14T08:41:08;7.43;;;1.65;;
39524;SDS011;25203;50.754;6.978;2023-06-14T08:43:13;4.20;;;1.80;;
39524;SDS011;25203;50.754;6.978;2023-06-14T08:45:14;4.18;;;1.55;;
39524;SDS011;25203;50.754;6.978;2023-06-14T08:47:15;3.28;;;1.60;;
39524;SDS011;25203;50.754;6.978;2023-06-14T08:49:17;4.80;;;1.60;;
39524;SDS011;25203;50.754;6.978;2023-06-14T08:51:19;1.58;;;1.40;;
39524;SDS011;25203;50.754;6.978;2023-06-14T08:53:23;4.72;;;1.40;;
39524;SDS011;25203;50.754;6.978;2023-06-14T08:55:24;3.70;;;1.80;;
39524;SDS011;25203;50.754;6.978;2023-06-14T08:57:27;5.75;;;1.63;;
39524;SDS011;25203;50.754;6.978;2023-06-14T08:59:30;2.15;;;1.60;;
39524;SDS011;25203;50.754;6.978;2023-06-14T09:01:34;3.42;;;1.77;;
39524;SDS011;25203;50.754;6.978;2023-06-14T09:03:36;4.75;;;1.60;;
39524;SDS011;25203;50.754;6.978;2023-06-14T09:05:40;2.15;;;1.40;;
39524;SDS011;25203;50.754;6.978;2023-06-14T09:07:41;1.65;;;1.55;;
39524;SDS011;25203;50.754;6.978;2023-06-14T09:09:42;7.47;;;1.77;;
39524;SDS011;25203;50.754;6.978;2023-06-14T09:11:42;2.92;;;1.63;;
39524;SDS011;25203;50.754;6.978;2023-06-14T09:13:44;2.65;;;1.50;;
39524;SDS011;25203;50.754;6.978;2023-06-14T09:15:48;2.70;;;1.95;;
39524;SDS011;25203;50.754;6.978;2023-06-14T09:17:49;2.60;;;1.50;;
39524;SDS011;25203;50.754;6.978;2023-06-14T09:19:51;3.45;;;1.48;;
39524;SDS011;25203;50.754;6.978;2023-06-14T09:21:55;6.07;;;1.52;;
39524;SDS011;25203;50.754;6.978;2023-06-14T09:23:55;3.33;;;1.45;;
39524;SDS011;25203;50.754;6.978;2023-06-14T09:25:56;4.38;;;1.65;;
39524;SDS011;25203;50.754;6.978;2023-06-14T09:27:57;3.17;;;1.48;;
39524;SDS011;25203;50.754;6.978;2023-06-14T09:29:57;2.15;;;1.42;;
39524;SDS011;25203;50.754;6.978;2023-06-14T09:31:58;4.35;;;1.63;;
39524;SDS011;25203;50.754;6.978;2023-06-14T09:34:01;1.50;;;1.40;;
39524;SDS011;25203;50.754;6.978;2023-06-14T09:36:09;2.33;;;1.42;;
39524;SDS011;25203;50.754;6.978;2023-06-14T09:38:10;1.50;;;1.33;;
39524;SDS011;25203;50.754;6.978;2023-06-14T09:40:11;2.33;;;1.40;;
39524;SDS011;25203;50.754;6.978;2023-06-14T09:42:18;3.30;;;1.50;;
39524;SDS011;25203;50.754;6.978;2023-06-14T09:44:19;1.55;;;1.45;;
39524;SDS011;25203;50.754;6.978;2023-06-14T09:46:21;3.05;;;1.77;;
39524;SDS011;25203;50.754;6.978;2023-06-14T09:48:22;1.65;;;1.23;;
39524;SDS011;25203;50.754;6.978;2023-06-14T09:50:23;1.65;;;1.25;;
39524;SDS011;25203;50.754;6.978;2023-06-14T09:52:23;4.70;;;1.70;;
39524;SDS011;25203;50.754;6.978;2023-06-14T09:54:26;1.65;;;1.42;;
39524;SDS011;25203;50.754;6.978;2023-06-14T09:56:30;3.20;;;1.50;;
39524;SDS011;25203;50.754;6.978;2023-06-14T09:58:33;5.10;;;1.40;;
39524;SDS011;25203;50.754;6.978;2023-06-14T10:00:37;2.13;;;1.40;;
39524;SDS011;25203;50.754;6.978;2023-06-14T10:02:40;2.92;;;1.40;;
39524;SDS011;25203;50.754;6.978;2023-06-14T10:04:50;4.50;;;1.50;;
39524;SDS011;25203;50.754;6.978;2023-06-14T10:06:57;3.22;;;1.50;;
39524;SDS011;25203;50.754;6.978;2023-06-14T10:08:59;4.50;;;1.70;;
39524;SDS011;25203;50.754;6.978;2023-06-14T10:11:01;2.38;;;1.55;;
39524;SDS011;25203;50.754;6.978;2023-06-14T10:13:01;4.75;;;1.65;;
39524;SDS011;25203;50.754;6.978;2023-06-14T10:15:02;3.08;;;1.90;;
39524;SDS011;25203;50.754;6.978;2023-06-14T10:17:08;2.40;;;1.45;;
39524;SDS011;25203;50.754;6.978;2023-06-14T10:22:18;2.08;;;1.60;;
39524;SDS011;25203;50.754;6.978;2023-06-14T10:24:04;3.60;;;1.80;;
39524;SDS011;25203;50.754;6.978;2023-06-14T10:26:08;2.78;;;1.70;;
39524;SDS011;25203;50.754;6.978;2023-06-14T10:28:17;2.97;;;1.60;;
39524;SDS011;25203;50.754;6.978;2023-06-14T10:30:25;2.15;;;1.50;;
39524;SDS011;25203;50.754;6.978;2023-06-14T10:32:26;3.97;;;1.40;;
39524;SDS011;25203;50.754;6.978;2023-06-14T10:34:29;3.70;;;1.63;;
39524;SDS011;25203;50.754;6.978;2023-06-14T10:36:31;3.08;;;1.38;;
39524;SDS011;25203;50.754;6.978;2023-06-14T10:38:35;1.60;;;1.50;;
39524;SDS011;25203;50.754;6.978;2023-06-14T10:40:38;3.22;;;1.40;;
39524;SDS011;25203;50.754;6.978;2023-06-14T10:42:39;2.85;;;1.95;;
39524;SDS011;25203;50.754;6.978;2023-06-14T10:44:52;2.85;;;1.38;;
39524;SDS011;25203;50.754;6.978;2023-06-14T10:47:00;2.60;;;1.55;;
39524;SDS011;25203;50.754;6.978;2023-06-14T10:49:01;1.70;;;1.60;;
39524;SDS011;25203;50.754;6.978;2023-06-14T10:51:03;1.50;;;1.40;;
39524;SDS011;25203;50.754;6.978;2023-06-14T10:53:21;5.43;;;1.60;;
39524;SDS011;25203;50.754;6.978;2023-06-14T10:55:22;2.83;;;1.50;;
39524;SDS011;25203;50.754;6.978;2023-06-14T10:57:24;1.85;;;1.30;;
39524;SDS011;25203;50.754;6.978;2023-06-14T10:59:26;4.65;;;2.03;;
39524;SDS011;25203;50.754;6.978;2023-06-14T11:01:35;1.77;;;1.42;;
39524;SDS011;25203;50.754;6.978;2023-06-14T11:04:13;1.80;;;1.63;;
39524;SDS011;25203;50.754;6.978;2023-06-14T11:06:14;3.10;;;1.70;;
39524;SDS011;25203;50.754;6.978;2023-06-14T11:12:31;4.43;;;1.90;;
39524;SDS011;25203;50.754;6.978;2023-06-14T11:14:35;1.67;;;1.52;;
39524;SDS011;25203;50.754;6.978;2023-06-14T11:16:36;4.65;;;1.90;;
39524;SDS011;25203;50.754;6.978;2023-06-14T11:18:36;2.47;;;1.52;;
39524;SDS011;25203;50.754;6.978;2023-06-14T11:20:37;4.70;;;1.50;;
39524;SDS011;25203;50.754;6.978;2023-06-14T11:22:40;8.80;;;1.75;;
39524;SDS011;25203;50.754;6.978;2023-06-14T11:24:44;1.80;;;1.33;;
39524;SDS011;25203;50.754;6.978;2023-06-14T11:26:46;4.60;;;1.40;;
39524;SDS011;25203;50.754;6.978;2023-06-14T11:28:47;3.22;;;1.45;;
39524;SDS011;25203;50.754;6.978;2023-06-14T11:30:48;3.92;;;1.30;;
39524;SDS011;25203;50.754;6.978;2023-06-14T11:32:50;2.55;;;1.25;;
39524;SDS011;25203;50.754;6.978;2023-06-14T11:34:51;2.10;;;1.90;;
39524;SDS011;25203;50.754;6.978;2023-06-14T11:36:52;3.05;;;1.67;;
39524;SDS011;25203;50.754;6.978;2023-06-14T11:39:03;2.97;;;1.80;;
39524;SDS011;25203;50.754;6.978;2023-06-14T11:41:06;2.40;;;1.67;;
39524;SDS011;25203;50.754;6.978;2023-06-14T11:43:07;4.32;;;1.70;;
39524;SDS011;25203;50.754;6.978;2023-06-14T11:45:08;2.90;;;2.10;;
39524;SDS011;25203;50.754;6.978;2023-06-14T11:47:10;2.70;;;1.70;;
39524;SDS011;25203;50.754;6.978;2023-06-14T11:49:10;2.70;;;1.33;;
39524;SDS011;25203;50.754;6.978;2023-06-14T11:51:11;3.28;;;1.40;;
39524;SDS011;25203;50.754;6.978;2023-06-14T11:53:12;2.45;;;1.60;;
39524;SDS011;25203;50.754;6.978;2023-06-14T11:55:12;4.45;;;1.80;;
39524;SDS011;25203;50.754;6.978;2023-06-14T11:57:13;4.55;;;1.70;;
39524;SDS011;25203;50.754;6.978;2023-06-14T11:59:13;2.45;;;1.38;;
39524;SDS011;25203;50.754;6.978;2023-06-14T12:01:16;2.25;;;1.70;;
39524;SDS011;25203;50.754;6.978;2023-06-14T12:03:17;2.53;;;1.70;;
39524;SDS011;25203;50.754;6.978;2023-06-14T12:05:22;6.55;;;1.90;;
39524;SDS011;25203;50.754;6.978;2023-06-14T12:07:23;1.90;;;1.70;;
39524;SDS011;25203;50.754;6.978;2023-06-14T12:09:24;2.13;;;1.27;;
39524;SDS011;25203;50.754;6.978;2023-06-14T12:11:33;3.67;;;1.58;;
39524;SDS011;25203;50.754;6.978;2023-06-14T12:13:37;2.47;;;1.58;;
39524;SDS011;25203;50.754;6.978;2023-06-14T12:15:38;1.92;;;1.27;;
39524;SDS011;25203;50.754;6.978;2023-06-14T12:17:39;3.72;;;1.60;;
39524;SDS011;25203;50.754;6.978;2023-06-14T12:19:42;3.22;;;1.60;;
39524;SDS011;25203;50.754;6.978;2023-06-14T12:21:46;1.85;;;1.60;;
39524;SDS011;25203;50.754;6.978;2023-06-14T12:23:52;3.22;;;1.55;;